sensor_id;sensor_type;location;lat;lon;timestamp;P1;durP1;ratioP1;P2;durP2;ratioP2
26718;SDS011;14326;50.794;6.060;2023-03-01T00:02:02;19.65;;;8.77;;
26718;SDS011;14326;50.794;6.060;2023-03-01T00:04:29;20.45;;;7.75;;
26718;SDS011;14326;50.794;6.060;2023-03-01T00:06:56;24.25;;;9.82;;
26718;SDS011;14326;50.794;6.060;2023-03-01T00:09:23;24.20;;;10.10;;
26718;SDS011;14326;50.794;6.060;2023-03-01T00:12:03;22.42;;;9.48;;
26718;SDS011;14326;50.794;6.060;2023-03-01T00:14:33;24.50;;;9.55;;
26718;SDS011;14326;50.794;6.060;2023-03-01T00:17:01;26.45;;;9.88;;
26718;SDS011;14326;50.794;6.060;2023-03-01T00:19:27;26.10;;;10.18;;
26718;SDS011;14326;50.794;6.060;2023-03-01T00:21:54;21.42;;;8.38;;
26718;SDS011;14326;50.794;6.060;2023-03-01T00:24:20;26.13;;;10.13;;
26718;SDS011;14326;50.794;6.060;2023-03-01T00:26:47;24.10;;;9.27;;
26718;SDS011;14326;50.794;6.060;2023-03-01T00:29:14;21.83;;;8.43;;
26718;SDS011;14326;50.794;6.060;2023-03-01T00:31:41;22.45;;;9.15;;
26718;SDS011;14326;50.794;6.060;2023-03-01T00:37:05;22.48;;;8.82;;
26718;SDS011;14326;50.794;6.060;2023-03-01T00:39:46;21.23;;;8.57;;
26718;SDS011;14326;50.794;6.060;2023-03-01T00:42:17;24.10;;;9.38;;
26718;SDS011;14326;50.794;6.060;2023-03-01T00:47:44;24.63;;;9.20;;
26718;SDS011;14326;50.794;6.060;2023-03-01T00:50:21;19.63;;;7.97;;
26718;SDS011;14326;50.794;6.060;2023-03-01T00:52:54;24.30;;;9.27;;
26718;SDS011;14326;50.794;6.060;2023-03-01T00:55:33;27.73;;;9.82;;
26718;SDS011;14326;50.794;6.060;2023-03-01T00:58:01;23.45;;;9.15;;
26718;SDS011;14326;50.794;6.060;2023-03-01T01:00:40;22.67;;;9.93;;
26718;SDS011;14326;50.794;6.060;2023-03-01T01:03:23;24.25;;;9.75;;
26718;SDS011;14326;50.794;6.060;2023-03-01T01:06:01;23.80;;;9.52;;
26718;SDS011;14326;50.794;6.060;2023-03-01T01:08:34;25.05;;;10.57;;
26718;SDS011;14326;50.794;6.060;2023-03-01T01:11:00;24.52;;;8.68;;
26718;SDS011;14326;50.794;6.060;2023-03-01T01:13:27;24.88;;;9.77;;
26718;SDS011;14326;50.794;6.060;2023-03-01T01:15:53;25.83;;;10.75;;
26718;SDS011;14326;50.794;6.060;2023-03-01T01:18:20;25.88;;;10.02;;
26718;SDS011;14326;50.794;6.060;2023-03-01T01:23:42;25.83;;;10.00;;
26718;SDS011;14326;50.794;6.060;2023-03-01T01:26:51;25.35;;;9.65;;
26718;SDS011;14326;50.794;6.060;2023-03-01T01:29:37;23.37;;;9.17;;
26718;SDS011;14326;50.794;6.060;2023-03-01T01:32:04;25.65;;;9.95;;
26718;SDS011;14326;50.794;6.060;2023-03-01T01:34:34;25.27;;;10.00;;
26718;SDS011;14326;50.794;6.060;2023-03-01T01:37:29;23.90;;;9.77;;
26718;SDS011;14326;50.794;6.060;2023-03-01T01:39:57;22.02;;;9.30;;
26718;SDS011;14326;50.794;6.060;2023-03-01T01:42:30;23.98;;;9.50;;
26718;SDS011;14326;50.794;6.060;2023-03-01T01:45:24;22.45;;;9.25;;
26718;SDS011;14326;50.794;6.060;2023-03-01T01:47:54;24.70;;;9.05;;
26718;SDS011;14326;50.794;6.060;2023-03-01T01:50:23;21.42;;;9.15;;
26718;SDS011;14326;50.794;6.060;2023-03-01T01:52:52;26.77;;;9.82;;
26718;SDS011;14326;50.794;6.060;2023-03-01T01:55:21;24.77;;;10.25;;
26718;SDS011;14326;50.794;6.060;2023-03-01T01:57:53;24.02;;;9.68;;
26718;SDS011;14326;50.794;6.060;2023-03-01T02:02:56;24.52;;;9.05;;
26718;SDS011;14326;50.794;6.060;2023-03-01T02:05:28;24.25;;;9.48;;
26718;SDS011;14326;50.794;6.060;2023-03-01T02:08:04;27.00;;;9.63;;
26718;SDS011;14326;50.794;6.060;2023-03-01T02:10:37;23.85;;;9.68;;
26718;SDS011;14326;50.794;6.060;2023-03-01T02:13:13;25.42;;;10.55;;
26718;SDS011;14326;50.794;6.060;2023-03-01T02:15:40;23.45;;;9.35;;
26718;SDS011;14326;50.794;6.060;2023-03-01T02:18:09;20.93;;;7.80;;
26718;SDS011;14326;50.794;6.060;2023-03-01T02:23:40;25.63;;;9.75;;
26718;SDS011;14326;50.794;6.060;2023-03-01T02:26:09;23.20;;;9.82;;
26718;SDS011;14326;50.794;6.060;2023-03-01T02:28:42;26.17;;;10.60;;
26718;SDS011;14326;50.794;6.060;2023-03-01T02:31:10;24.90;;;9.43;;
26718;SDS011;14326;50.794;6.060;2023-03-01T02:33:59;26.45;;;10.00;;
26718;SDS011;14326;50.794;6.060;2023-03-01T02:38:58;21.52;;;9.38;;
26718;SDS011;14326;50.794;6.060;2023-03-01T02:41:27;20.67;;;7.97;;
26718;SDS011;14326;50.794;6.060;2023-03-01T02:43:58;24.50;;;10.30;;
26718;SDS011;14326;50.794;6.060;2023-03-01T02:46:42;26.75;;;10.57;;
26718;SDS011;14326;50.794;6.060;2023-03-01T02:49:28;26.23;;;10.80;;
26718;SDS011;14326;50.794;6.060;2023-03-01T02:52:19;27.42;;;11.35;;
26718;SDS011;14326;50.794;6.060;2023-03-01T02:54:58;27.23;;;11.02;;
26718;SDS011;14326;50.794;6.060;2023-03-01T02:57:27;27.13;;;10.52;;
26718;SDS011;14326;50.794;6.060;2023-03-01T02:59:59;26.15;;;10.25;;
26718;SDS011;14326;50.794;6.060;2023-03-01T03:02:32;30.52;;;10.55;;
26718;SDS011;14326;50.794;6.060;2023-03-01T03:05:05;29.25;;;10.80;;
26718;SDS011;14326;50.794;6.060;2023-03-01T03:07:40;28.42;;;11.20;;
26718;SDS011;14326;50.794;6.060;2023-03-01T03:10:33;27.95;;;11.15;;
26718;SDS011;14326;50.794;6.060;2023-03-01T03:13:14;29.27;;;11.50;;
26718;SDS011;14326;50.794;6.060;2023-03-01T03:18:28;28.00;;;10.98;;
26718;SDS011;14326;50.794;6.060;2023-03-01T03:20:55;25.77;;;10.80;;
26718;SDS011;14326;50.794;6.060;2023-03-01T03:23:21;30.60;;;11.90;;
26718;SDS011;14326;50.794;6.060;2023-03-01T03:25:48;25.95;;;11.02;;
26718;SDS011;14326;50.794;6.060;2023-03-01T03:28:16;25.58;;;11.00;;
26718;SDS011;14326;50.794;6.060;2023-03-01T03:30:43;26.88;;;11.13;;
26718;SDS011;14326;50.794;6.060;2023-03-01T03:33:13;29.33;;;10.27;;
26718;SDS011;14326;50.794;6.060;2023-03-01T03:35:40;26.27;;;10.57;;
26718;SDS011;14326;50.794;6.060;2023-03-01T03:38:12;27.73;;;11.27;;
26718;SDS011;14326;50.794;6.060;2023-03-01T03:40:42;30.85;;;11.48;;
26718;SDS011;14326;50.794;6.060;2023-03-01T03:43:12;28.15;;;10.70;;
26718;SDS011;14326;50.794;6.060;2023-03-01T03:45:40;28.95;;;9.50;;
26718;SDS011;14326;50.794;6.060;2023-03-01T03:48:19;25.40;;;10.45;;
26718;SDS011;14326;50.794;6.060;2023-03-01T03:51:05;28.90;;;10.73;;
26718;SDS011;14326;50.794;6.060;2023-03-01T03:53:32;27.42;;;10.40;;
26718;SDS011;14326;50.794;6.060;2023-03-01T03:56:00;27.98;;;11.30;;
26718;SDS011;14326;50.794;6.060;2023-03-01T03:58:27;25.15;;;10.00;;
26718;SDS011;14326;50.794;6.060;2023-03-01T04:00:56;26.27;;;10.35;;
26718;SDS011;14326;50.794;6.060;2023-03-01T04:03:29;25.20;;;10.40;;
26718;SDS011;14326;50.794;6.060;2023-03-01T04:05:57;28.52;;;10.65;;
26718;SDS011;14326;50.794;6.060;2023-03-01T04:08:25;26.35;;;10.57;;
26718;SDS011;14326;50.794;6.060;2023-03-01T04:10:52;26.33;;;10.23;;
26718;SDS011;14326;50.794;6.060;2023-03-01T04:13:24;26.35;;;10.23;;
26718;SDS011;14326;50.794;6.060;2023-03-01T04:15:51;24.40;;;9.48;;
26718;SDS011;14326;50.794;6.060;2023-03-01T04:18:19;26.00;;;9.80;;
26718;SDS011;14326;50.794;6.060;2023-03-01T04:20:49;28.40;;;10.52;;
26718;SDS011;14326;50.794;6.060;2023-03-01T04:23:17;30.27;;;10.50;;
26718;SDS011;14326;50.794;6.060;2023-03-01T04:25:46;23.30;;;10.25;;
26718;SDS011;14326;50.794;6.060;2023-03-01T04:28:18;29.92;;;11.15;;
26718;SDS011;14326;50.794;6.060;2023-03-01T04:33:54;26.23;;;10.70;;
26718;SDS011;14326;50.794;6.060;2023-03-01T04:36:31;27.25;;;10.57;;
26718;SDS011;14326;50.794;6.060;2023-03-01T04:39:00;24.83;;;10.40;;
26718;SDS011;14326;50.794;6.060;2023-03-01T04:41:37;27.40;;;10.77;;
26718;SDS011;14326;50.794;6.060;2023-03-01T04:44:05;25.95;;;10.20;;
26718;SDS011;14326;50.794;6.060;2023-03-01T04:46:32;23.70;;;9.73;;
26718;SDS011;14326;50.794;6.060;2023-03-01T04:48:58;24.48;;;10.65;;
26718;SDS011;14326;50.794;6.060;2023-03-01T04:51:25;29.67;;;11.40;;
26718;SDS011;14326;50.794;6.060;2023-03-01T04:53:54;26.60;;;10.25;;
26718;SDS011;14326;50.794;6.060;2023-03-01T04:56:20;27.02;;;11.00;;
26718;SDS011;14326;50.794;6.060;2023-03-01T04:58:48;25.80;;;10.13;;
26718;SDS011;14326;50.794;6.060;2023-03-01T05:01:15;23.60;;;9.45;;
26718;SDS011;14326;50.794;6.060;2023-03-01T05:03:44;27.60;;;10.57;;
26718;SDS011;14326;50.794;6.060;2023-03-01T05:06:12;23.77;;;9.80;;
26718;SDS011;14326;50.794;6.060;2023-03-01T05:08:41;26.42;;;10.82;;
26718;SDS011;14326;50.794;6.060;2023-03-01T05:11:11;24.52;;;10.18;;
26718;SDS011;14326;50.794;6.060;2023-03-01T05:13:40;30.20;;;10.80;;
26718;SDS011;14326;50.794;6.060;2023-03-01T05:16:09;27.20;;;10.70;;
26718;SDS011;14326;50.794;6.060;2023-03-01T05:18:36;32.53;;;12.52;;
26718;SDS011;14326;50.794;6.060;2023-03-01T05:21:03;31.63;;;11.48;;
26718;SDS011;14326;50.794;6.060;2023-03-01T05:23:31;27.38;;;10.07;;
26718;SDS011;14326;50.794;6.060;2023-03-01T05:25:59;29.92;;;10.55;;
26718;SDS011;14326;50.794;6.060;2023-03-01T05:28:27;29.52;;;11.43;;
26718;SDS011;14326;50.794;6.060;2023-03-01T05:30:54;28.42;;;10.07;;
26718;SDS011;14326;50.794;6.060;2023-03-01T05:33:21;23.50;;;9.73;;
26718;SDS011;14326;50.794;6.060;2023-03-01T05:35:48;24.85;;;10.55;;
26718;SDS011;14326;50.794;6.060;2023-03-01T05:38:16;27.67;;;11.30;;
26718;SDS011;14326;50.794;6.060;2023-03-01T05:40:45;25.85;;;9.85;;
26718;SDS011;14326;50.794;6.060;2023-03-01T05:43:22;26.45;;;10.32;;
26718;SDS011;14326;50.794;6.060;2023-03-01T05:45:50;28.38;;;10.55;;
26718;SDS011;14326;50.794;6.060;2023-03-01T05:48:17;25.13;;;10.15;;
26718;SDS011;14326;50.794;6.060;2023-03-01T05:50:45;25.83;;;10.50;;
26718;SDS011;14326;50.794;6.060;2023-03-01T05:53:14;27.63;;;10.30;;
26718;SDS011;14326;50.794;6.060;2023-03-01T05:55:43;28.90;;;10.70;;
26718;SDS011;14326;50.794;6.060;2023-03-01T05:58:14;28.17;;;11.38;;
26718;SDS011;14326;50.794;6.060;2023-03-01T06:00:42;28.58;;;11.60;;
26718;SDS011;14326;50.794;6.060;2023-03-01T06:03:19;23.20;;;9.75;;
26718;SDS011;14326;50.794;6.060;2023-03-01T06:05:46;26.23;;;10.30;;
26718;SDS011;14326;50.794;6.060;2023-03-01T06:08:13;30.83;;;10.73;;
26718;SDS011;14326;50.794;6.060;2023-03-01T06:13:09;25.67;;;9.70;;
26718;SDS011;14326;50.794;6.060;2023-03-01T06:15:48;25.60;;;10.30;;
26718;SDS011;14326;50.794;6.060;2023-03-01T06:18:16;28.40;;;10.30;;
26718;SDS011;14326;50.794;6.060;2023-03-01T06:20:43;31.13;;;11.57;;
26718;SDS011;14326;50.794;6.060;2023-03-01T06:23:09;25.75;;;10.23;;
26718;SDS011;14326;50.794;6.060;2023-03-01T06:25:36;27.92;;;11.57;;
26718;SDS011;14326;50.794;6.060;2023-03-01T06:28:03;30.55;;;12.02;;
26718;SDS011;14326;50.794;6.060;2023-03-01T06:30:30;28.20;;;11.27;;
26718;SDS011;14326;50.794;6.060;2023-03-01T06:32:57;31.25;;;11.95;;
26718;SDS011;14326;50.794;6.060;2023-03-01T06:35:27;27.92;;;11.07;;
26718;SDS011;14326;50.794;6.060;2023-03-01T06:37:55;27.63;;;11.18;;
26718;SDS011;14326;50.794;6.060;2023-03-01T06:40:22;25.30;;;10.32;;
26718;SDS011;14326;50.794;6.060;2023-03-01T06:42:49;29.65;;;11.48;;
26718;SDS011;14326;50.794;6.060;2023-03-01T06:45:16;25.17;;;10.38;;
26718;SDS011;14326;50.794;6.060;2023-03-01T06:47:45;31.55;;;11.25;;
26718;SDS011;14326;50.794;6.060;2023-03-01T06:50:12;32.88;;;11.68;;
26718;SDS011;14326;50.794;6.060;2023-03-01T06:52:40;25.23;;;11.07;;
26718;SDS011;14326;50.794;6.060;2023-03-01T06:55:09;29.15;;;12.27;;
26718;SDS011;14326;50.794;6.060;2023-03-01T06:57:35;29.58;;;10.10;;
26718;SDS011;14326;50.794;6.060;2023-03-01T07:00:02;26.10;;;10.65;;
26718;SDS011;14326;50.794;6.060;2023-03-01T07:02:29;24.67;;;10.23;;
26718;SDS011;14326;50.794;6.060;2023-03-01T07:04:56;24.35;;;9.30;;
26718;SDS011;14326;50.794;6.060;2023-03-01T07:07:22;26.95;;;10.10;;
26718;SDS011;14326;50.794;6.060;2023-03-01T07:09:50;27.55;;;9.35;;
26718;SDS011;14326;50.794;6.060;2023-03-01T07:12:18;26.95;;;9.25;;
26718;SDS011;14326;50.794;6.060;2023-03-01T07:14:44;25.52;;;9.75;;
26718;SDS011;14326;50.794;6.060;2023-03-01T07:17:11;26.48;;;8.93;;
26718;SDS011;14326;50.794;6.060;2023-03-01T07:19:38;22.63;;;9.38;;
26718;SDS011;14326;50.794;6.060;2023-03-01T07:22:04;21.60;;;7.65;;
26718;SDS011;14326;50.794;6.060;2023-03-01T07:24:46;21.08;;;9.45;;
26718;SDS011;14326;50.794;6.060;2023-03-01T07:27:34;25.88;;;10.20;;
26718;SDS011;14326;50.794;6.060;2023-03-01T07:30:15;21.38;;;9.85;;
26718;SDS011;14326;50.794;6.060;2023-03-01T07:32:59;28.58;;;10.95;;
26718;SDS011;14326;50.794;6.060;2023-03-01T07:35:42;23.08;;;9.65;;
26718;SDS011;14326;50.794;6.060;2023-03-01T07:38:08;25.35;;;10.80;;
26718;SDS011;14326;50.794;6.060;2023-03-01T07:40:36;26.55;;;11.32;;
26718;SDS011;14326;50.794;6.060;2023-03-01T07:43:03;25.40;;;11.07;;
26718;SDS011;14326;50.794;6.060;2023-03-01T07:45:30;30.10;;;11.50;;
26718;SDS011;14326;50.794;6.060;2023-03-01T07:48:04;29.73;;;12.93;;
26718;SDS011;14326;50.794;6.060;2023-03-01T07:50:41;30.63;;;12.95;;
26718;SDS011;14326;50.794;6.060;2023-03-01T07:53:08;30.05;;;12.32;;
26718;SDS011;14326;50.794;6.060;2023-03-01T07:55:34;29.15;;;12.20;;
26718;SDS011;14326;50.794;6.060;2023-03-01T07:58:05;28.83;;;12.52;;
26718;SDS011;14326;50.794;6.060;2023-03-01T08:00:34;22.03;;;9.40;;
26718;SDS011;14326;50.794;6.060;2023-03-01T08:03:03;25.67;;;12.23;;
26718;SDS011;14326;50.794;6.060;2023-03-01T08:05:30;26.92;;;11.30;;
26718;SDS011;14326;50.794;6.060;2023-03-01T08:07:57;29.10;;;10.60;;
26718;SDS011;14326;50.794;6.060;2023-03-01T08:10:23;26.42;;;10.82;;
26718;SDS011;14326;50.794;6.060;2023-03-01T08:12:52;26.45;;;11.40;;
26718;SDS011;14326;50.794;6.060;2023-03-01T08:15:19;27.60;;;11.45;;
26718;SDS011;14326;50.794;6.060;2023-03-01T08:17:45;29.95;;;11.10;;
26718;SDS011;14326;50.794;6.060;2023-03-01T08:20:15;24.70;;;11.20;;
26718;SDS011;14326;50.794;6.060;2023-03-01T08:22:42;30.08;;;12.07;;
26718;SDS011;14326;50.794;6.060;2023-03-01T08:25:08;27.63;;;10.82;;
26718;SDS011;14326;50.794;6.060;2023-03-01T08:27:35;24.73;;;10.82;;
26718;SDS011;14326;50.794;6.060;2023-03-01T08:30:04;26.48;;;11.45;;
26718;SDS011;14326;50.794;6.060;2023-03-01T08:32:34;29.70;;;11.23;;
26718;SDS011;14326;50.794;6.060;2023-03-01T08:35:02;30.45;;;11.65;;
26718;SDS011;14326;50.794;6.060;2023-03-01T08:37:29;28.20;;;11.88;;
26718;SDS011;14326;50.794;6.060;2023-03-01T08:39:57;26.20;;;11.07;;
26718;SDS011;14326;50.794;6.060;2023-03-01T08:42:24;27.65;;;11.82;;
26718;SDS011;14326;50.794;6.060;2023-03-01T08:44:51;24.63;;;11.60;;
26718;SDS011;14326;50.794;6.060;2023-03-01T08:47:19;34.17;;;13.38;;
26718;SDS011;14326;50.794;6.060;2023-03-01T08:49:45;28.58;;;12.75;;
26718;SDS011;14326;50.794;6.060;2023-03-01T08:52:12;32.00;;;12.88;;
26718;SDS011;14326;50.794;6.060;2023-03-01T08:54:38;28.95;;;13.05;;
26718;SDS011;14326;50.794;6.060;2023-03-01T08:57:05;27.73;;;11.80;;
26718;SDS011;14326;50.794;6.060;2023-03-01T08:59:32;32.83;;;12.82;;
26718;SDS011;14326;50.794;6.060;2023-03-01T09:04:30;32.65;;;12.35;;
26718;SDS011;14326;50.794;6.060;2023-03-01T09:06:58;27.88;;;11.70;;
26718;SDS011;14326;50.794;6.060;2023-03-01T09:09:24;32.10;;;11.63;;
26718;SDS011;14326;50.794;6.060;2023-03-01T09:11:51;31.00;;;12.63;;
26718;SDS011;14326;50.794;6.060;2023-03-01T09:14:18;28.40;;;13.43;;
26718;SDS011;14326;50.794;6.060;2023-03-01T09:16:44;27.48;;;12.45;;
26718;SDS011;14326;50.794;6.060;2023-03-01T09:19:11;28.83;;;12.45;;
26718;SDS011;14326;50.794;6.060;2023-03-01T09:21:39;29.23;;;13.30;;
26718;SDS011;14326;50.794;6.060;2023-03-01T09:24:06;35.15;;;13.35;;
26718;SDS011;14326;50.794;6.060;2023-03-01T09:26:38;28.38;;;12.30;;
26718;SDS011;14326;50.794;6.060;2023-03-01T09:29:05;31.10;;;12.77;;
26718;SDS011;14326;50.794;6.060;2023-03-01T09:31:31;30.38;;;12.82;;
26718;SDS011;14326;50.794;6.060;2023-03-01T09:33:58;31.58;;;12.30;;
26718;SDS011;14326;50.794;6.060;2023-03-01T09:36:24;30.23;;;12.57;;
26718;SDS011;14326;50.794;6.060;2023-03-01T09:38:52;31.13;;;12.90;;
26718;SDS011;14326;50.794;6.060;2023-03-01T09:41:26;29.45;;;13.68;;
26718;SDS011;14326;50.794;6.060;2023-03-01T09:44:27;30.23;;;13.65;;
26718;SDS011;14326;50.794;6.060;2023-03-01T09:46:57;31.38;;;12.95;;
26718;SDS011;14326;50.794;6.060;2023-03-01T09:49:25;33.03;;;13.20;;
26718;SDS011;14326;50.794;6.060;2023-03-01T09:54:25;32.92;;;13.73;;
26718;SDS011;14326;50.794;6.060;2023-03-01T09:56:56;34.65;;;12.55;;
26718;SDS011;14326;50.794;6.060;2023-03-01T09:59:28;36.25;;;14.65;;
26718;SDS011;14326;50.794;6.060;2023-03-01T10:02:01;31.17;;;13.52;;
26718;SDS011;14326;50.794;6.060;2023-03-01T10:04:41;29.50;;;12.73;;
26718;SDS011;14326;50.794;6.060;2023-03-01T10:07:17;29.98;;;12.88;;
26718;SDS011;14326;50.794;6.060;2023-03-01T10:09:54;29.38;;;12.95;;
26718;SDS011;14326;50.794;6.060;2023-03-01T10:12:22;30.65;;;13.60;;
26718;SDS011;14326;50.794;6.060;2023-03-01T10:14:55;31.27;;;13.50;;
26718;SDS011;14326;50.794;6.060;2023-03-01T10:17:28;31.42;;;13.10;;
26718;SDS011;14326;50.794;6.060;2023-03-01T10:20:10;33.00;;;13.93;;
26718;SDS011;14326;50.794;6.060;2023-03-01T10:22:44;34.63;;;14.55;;
26718;SDS011;14326;50.794;6.060;2023-03-01T10:25:17;30.42;;;13.23;;
26718;SDS011;14326;50.794;6.060;2023-03-01T10:27:53;32.55;;;13.93;;
26718;SDS011;14326;50.794;6.060;2023-03-01T10:30:22;33.17;;;13.73;;
26718;SDS011;14326;50.794;6.060;2023-03-01T10:32:55;29.70;;;13.70;;
26718;SDS011;14326;50.794;6.060;2023-03-01T10:35:25;32.10;;;13.32;;
26718;SDS011;14326;50.794;6.060;2023-03-01T10:37:56;30.38;;;13.48;;
26718;SDS011;14326;50.794;6.060;2023-03-01T10:40:26;29.20;;;13.18;;
26718;SDS011;14326;50.794;6.060;2023-03-01T10:42:53;34.08;;;14.18;;
26718;SDS011;14326;50.794;6.060;2023-03-01T10:45:27;30.70;;;13.30;;
26718;SDS011;14326;50.794;6.060;2023-03-01T10:48:05;33.35;;;12.95;;
26718;SDS011;14326;50.794;6.060;2023-03-01T10:50:38;29.30;;;13.38;;
26718;SDS011;14326;50.794;6.060;2023-03-01T10:53:10;33.13;;;13.82;;
26718;SDS011;14326;50.794;6.060;2023-03-01T10:55:50;29.67;;;13.20;;
26718;SDS011;14326;50.794;6.060;2023-03-01T10:58:23;29.75;;;12.98;;
26718;SDS011;14326;50.794;6.060;2023-03-01T11:00:51;30.17;;;12.50;;
26718;SDS011;14326;50.794;6.060;2023-03-01T11:03:21;31.23;;;12.32;;
26718;SDS011;14326;50.794;6.060;2023-03-01T11:05:51;27.63;;;12.15;;
26718;SDS011;14326;50.794;6.060;2023-03-01T11:08:30;25.13;;;11.80;;
26718;SDS011;14326;50.794;6.060;2023-03-01T11:11:11;26.48;;;12.10;;
26718;SDS011;14326;50.794;6.060;2023-03-01T11:13:56;35.58;;;15.52;;
26718;SDS011;14326;50.794;6.060;2023-03-01T11:16:25;29.38;;;12.20;;
26718;SDS011;14326;50.794;6.060;2023-03-01T11:18:58;32.35;;;13.15;;
26718;SDS011;14326;50.794;6.060;2023-03-01T11:21:28;27.63;;;12.95;;
26718;SDS011;14326;50.794;6.060;2023-03-01T11:23:58;25.65;;;11.68;;
26718;SDS011;14326;50.794;6.060;2023-03-01T11:26:29;28.13;;;12.63;;
26718;SDS011;14326;50.794;6.060;2023-03-01T11:29:02;29.20;;;13.57;;
26718;SDS011;14326;50.794;6.060;2023-03-01T11:31:33;29.27;;;12.73;;
26718;SDS011;14326;50.794;6.060;2023-03-01T11:34:02;28.65;;;12.50;;
26718;SDS011;14326;50.794;6.060;2023-03-01T11:36:38;29.45;;;12.82;;
26718;SDS011;14326;50.794;6.060;2023-03-01T11:39:15;29.23;;;12.65;;
26718;SDS011;14326;50.794;6.060;2023-03-01T11:41:50;30.80;;;13.07;;
26718;SDS011;14326;50.794;6.060;2023-03-01T11:44:26;30.48;;;12.50;;
26718;SDS011;14326;50.794;6.060;2023-03-01T11:47:06;30.85;;;12.80;;
26718;SDS011;14326;50.794;6.060;2023-03-01T11:49:44;31.40;;;13.45;;
26718;SDS011;14326;50.794;6.060;2023-03-01T11:52:30;32.65;;;12.75;;
26718;SDS011;14326;50.794;6.060;2023-03-01T11:55:12;30.40;;;13.23;;
26718;SDS011;14326;50.794;6.060;2023-03-01T11:57:54;30.73;;;13.02;;
26718;SDS011;14326;50.794;6.060;2023-03-01T12:00:42;27.70;;;12.27;;
26718;SDS011;14326;50.794;6.060;2023-03-01T12:06:27;28.73;;;12.73;;
26718;SDS011;14326;50.794;6.060;2023-03-01T12:09:14;31.20;;;11.88;;
26718;SDS011;14326;50.794;6.060;2023-03-01T12:11:54;30.10;;;12.95;;
26718;SDS011;14326;50.794;6.060;2023-03-01T12:14:43;28.33;;;11.98;;
26718;SDS011;14326;50.794;6.060;2023-03-01T12:17:31;32.25;;;13.93;;
26718;SDS011;14326;50.794;6.060;2023-03-01T12:20:17;33.05;;;14.55;;
26718;SDS011;14326;50.794;6.060;2023-03-01T12:22:56;31.60;;;13.27;;
26718;SDS011;14326;50.794;6.060;2023-03-01T12:25:34;30.95;;;13.52;;
26718;SDS011;14326;50.794;6.060;2023-03-01T12:28:12;31.38;;;13.55;;
26718;SDS011;14326;50.794;6.060;2023-03-01T12:31:05;31.85;;;13.00;;
26718;SDS011;14326;50.794;6.060;2023-03-01T12:33:45;31.98;;;12.65;;
26718;SDS011;14326;50.794;6.060;2023-03-01T12:39:16;30.25;;;13.10;;
26718;SDS011;14326;50.794;6.060;2023-03-01T12:42:01;30.58;;;13.13;;
26718;SDS011;14326;50.794;6.060;2023-03-01T12:44:45;25.10;;;12.05;;
26718;SDS011;14326;50.794;6.060;2023-03-01T12:47:30;29.55;;;12.52;;
26718;SDS011;14326;50.794;6.060;2023-03-01T12:50:17;30.40;;;13.20;;
26718;SDS011;14326;50.794;6.060;2023-03-01T12:52:47;28.50;;;12.32;;
26718;SDS011;14326;50.794;6.060;2023-03-01T12:55:24;28.33;;;12.20;;
26718;SDS011;14326;50.794;6.060;2023-03-01T12:57:57;29.38;;;12.68;;
26718;SDS011;14326;50.794;6.060;2023-03-01T13:00:39;27.42;;;12.38;;
26718;SDS011;14326;50.794;6.060;2023-03-01T13:03:23;29.92;;;12.95;;
26718;SDS011;14326;50.794;6.060;2023-03-01T13:06:04;28.13;;;13.00;;
26718;SDS011;14326;50.794;6.060;2023-03-01T13:08:43;27.27;;;12.60;;
26718;SDS011;14326;50.794;6.060;2023-03-01T13:11:23;30.52;;;13.57;;
26718;SDS011;14326;50.794;6.060;2023-03-01T13:14:03;27.25;;;12.77;;
26718;SDS011;14326;50.794;6.060;2023-03-01T13:17:31;29.23;;;12.95;;
26718;SDS011;14326;50.794;6.060;2023-03-01T13:20:14;26.73;;;12.27;;
26718;SDS011;14326;50.794;6.060;2023-03-01T13:22:48;29.75;;;11.55;;
26718;SDS011;14326;50.794;6.060;2023-03-01T13:25:51;28.55;;;12.13;;
26718;SDS011;14326;50.794;6.060;2023-03-01T13:34:45;28.77;;;11.77;;
26718;SDS011;14326;50.794;6.060;2023-03-01T13:37:22;27.67;;;12.05;;
26718;SDS011;14326;50.794;6.060;2023-03-01T13:40:00;24.30;;;11.27;;
26718;SDS011;14326;50.794;6.060;2023-03-01T13:42:36;25.75;;;11.32;;
26718;SDS011;14326;50.794;6.060;2023-03-01T13:45:19;26.33;;;11.40;;
26718;SDS011;14326;50.794;6.060;2023-03-01T13:47:54;25.67;;;11.13;;
26718;SDS011;14326;50.794;6.060;2023-03-01T13:50:25;25.80;;;10.88;;
26718;SDS011;14326;50.794;6.060;2023-03-01T13:52:59;27.30;;;12.13;;
26718;SDS011;14326;50.794;6.060;2023-03-01T13:55:37;32.17;;;11.43;;
26718;SDS011;14326;50.794;6.060;2023-03-01T13:58:15;24.42;;;10.48;;
26718;SDS011;14326;50.794;6.060;2023-03-01T14:00:54;24.58;;;10.23;;
26718;SDS011;14326;50.794;6.060;2023-03-01T14:03:26;25.75;;;11.02;;
26718;SDS011;14326;50.794;6.060;2023-03-01T14:05:59;16.77;;;7.53;;
26718;SDS011;14326;50.794;6.060;2023-03-01T14:08:33;24.20;;;10.63;;
26718;SDS011;14326;50.794;6.060;2023-03-01T14:14:44;26.08;;;10.45;;
26718;SDS011;14326;50.794;6.060;2023-03-01T14:17:49;26.40;;;11.55;;
26718;SDS011;14326;50.794;6.060;2023-03-01T14:20:37;26.15;;;11.02;;
26718;SDS011;14326;50.794;6.060;2023-03-01T14:23:12;26.80;;;11.10;;
26718;SDS011;14326;50.794;6.060;2023-03-01T14:25:58;27.30;;;11.15;;
26718;SDS011;14326;50.794;6.060;2023-03-01T14:28:27;27.58;;;11.98;;
26718;SDS011;14326;50.794;6.060;2023-03-01T14:31:01;26.38;;;11.23;;
26718;SDS011;14326;50.794;6.060;2023-03-01T14:33:33;24.85;;;10.98;;
26718;SDS011;14326;50.794;6.060;2023-03-01T14:36:07;24.65;;;11.27;;
26718;SDS011;14326;50.794;6.060;2023-03-01T14:38:38;23.42;;;10.48;;
26718;SDS011;14326;50.794;6.060;2023-03-01T14:41:23;27.63;;;10.60;;
26718;SDS011;14326;50.794;6.060;2023-03-01T14:43:55;28.45;;;11.52;;
26718;SDS011;14326;50.794;6.060;2023-03-01T14:46:28;25.92;;;11.70;;
26718;SDS011;14326;50.794;6.060;2023-03-01T14:49:03;25.65;;;10.90;;
26718;SDS011;14326;50.794;6.060;2023-03-01T14:51:37;25.35;;;10.68;;
26718;SDS011;14326;50.794;6.060;2023-03-01T14:54:18;28.02;;;10.70;;
26718;SDS011;14326;50.794;6.060;2023-03-01T14:57:00;25.40;;;10.02;;
26718;SDS011;14326;50.794;6.060;2023-03-01T14:59:33;24.30;;;10.18;;
26718;SDS011;14326;50.794;6.060;2023-03-01T15:02:09;23.85;;;10.20;;
26718;SDS011;14326;50.794;6.060;2023-03-01T15:04:47;31.52;;;11.15;;
26718;SDS011;14326;50.794;6.060;2023-03-01T15:07:19;25.83;;;9.98;;
26718;SDS011;14326;50.794;6.060;2023-03-01T15:09:52;25.88;;;10.43;;
26718;SDS011;14326;50.794;6.060;2023-03-01T15:12:43;27.08;;;10.00;;
26718;SDS011;14326;50.794;6.060;2023-03-01T15:15:29;23.25;;;10.48;;
26718;SDS011;14326;50.794;6.060;2023-03-01T15:18:17;26.27;;;9.27;;
26718;SDS011;14326;50.794;6.060;2023-03-01T15:20:56;24.52;;;9.43;;
26718;SDS011;14326;50.794;6.060;2023-03-01T15:23:39;26.38;;;9.23;;
26718;SDS011;14326;50.794;6.060;2023-03-01T15:26:06;26.35;;;8.70;;
26718;SDS011;14326;50.794;6.060;2023-03-01T15:28:51;26.23;;;9.07;;
26718;SDS011;14326;50.794;6.060;2023-03-01T15:31:23;23.42;;;9.32;;
26718;SDS011;14326;50.794;6.060;2023-03-01T15:33:52;23.75;;;8.73;;
26718;SDS011;14326;50.794;6.060;2023-03-01T15:36:36;22.10;;;9.27;;
26718;SDS011;14326;50.794;6.060;2023-03-01T15:41:56;19.77;;;8.60;;
26718;SDS011;14326;50.794;6.060;2023-03-01T15:44:26;21.75;;;8.95;;
26718;SDS011;14326;50.794;6.060;2023-03-01T15:46:54;24.88;;;9.10;;